sensor_id;sensor_type;location;lat;lon;timestamp;P1;durP1;ratioP1;P2;durP2;ratioP2
12122;SDS011;6125;59.628;17.852;2023-03-01T00:01:00;3.33;;;1.80;;
12122;SDS011;6125;59.628;17.852;2023-03-01T00:03:27;1.77;;;0.90;;
12122;SDS011;6125;59.628;17.852;2023-03-01T00:05:55;2.83;;;1.20;;
12122;SDS011;6125;59.628;17.852;2023-03-01T00:08:22;3.20;;;1.00;;
12122;SDS011;6125;59.628;17.852;2023-03-01T00:10:59;2.97;;;1.07;;
12122;SDS011;6125;59.628;17.852;2023-03-01T00:13:27;1.87;;;1.10;;
12122;SDS011;6125;59.628;17.852;2023-03-01T00:15:54;2.63;;;1.13;;
12122;SDS011;6125;59.628;17.852;2023-03-01T00:18:21;4.20;;;1.27;;
12122;SDS011;6125;59.628;17.852;2023-03-01T00:20:51;2.37;;;1.20;;
12122;SDS011;6125;59.628;17.852;2023-03-01T00:23:21;2.90;;;1.30;;
12122;SDS011;6125;59.628;17.852;2023-03-01T00:25:49;2.40;;;1.27;;
12122;SDS011;6125;59.628;17.852;2023-03-01T00:28:17;2.50;;;1.10;;
12122;SDS011;6125;59.628;17.852;2023-03-01T00:30:44;2.17;;;1.10;;
12122;SDS011;6125;59.628;17.852;2023-03-01T00:33:12;2.17;;;1.10;;
12122;SDS011;6125;59.628;17.852;2023-03-01T00:35:39;3.10;;;0.87;;
12122;SDS011;6125;59.628;17.852;2023-03-01T00:38:06;3.57;;;1.30;;
12122;SDS011;6125;59.628;17.852;2023-03-01T00:40:35;3.20;;;1.10;;
12122;SDS011;6125;59.628;17.852;2023-03-01T00:43:03;2.27;;;1.00;;
12122;SDS011;6125;59.628;17.852;2023-03-01T00:45:30;2.10;;;1.10;;
12122;SDS011;6125;59.628;17.852;2023-03-01T00:47:59;4.33;;;1.20;;
12122;SDS011;6125;59.628;17.852;2023-03-01T00:50:26;1.97;;;1.20;;
12122;SDS011;6125;59.628;17.852;2023-03-01T00:52:53;2.47;;;1.00;;
12122;SDS011;6125;59.628;17.852;2023-03-01T00:55:20;4.37;;;1.10;;
12122;SDS011;6125;59.628;17.852;2023-03-01T00:57:57;4.17;;;1.60;;
12122;SDS011;6125;59.628;17.852;2023-03-01T01:00:24;6.27;;;1.10;;
12122;SDS011;6125;59.628;17.852;2023-03-01T01:02:52;3.97;;;1.20;;
12122;SDS011;6125;59.628;17.852;2023-03-01T01:05:19;3.57;;;1.20;;
12122;SDS011;6125;59.628;17.852;2023-03-01T01:07:47;2.50;;;1.23;;
12122;SDS011;6125;59.628;17.852;2023-03-01T01:10:14;2.53;;;1.30;;
12122;SDS011;6125;59.628;17.852;2023-03-01T01:12:42;2.03;;;1.00;;
12122;SDS011;6125;59.628;17.852;2023-03-01T01:15:11;2.47;;;1.10;;
12122;SDS011;6125;59.628;17.852;2023-03-01T01:17:40;2.50;;;1.00;;
12122;SDS011;6125;59.628;17.852;2023-03-01T01:20:08;2.20;;;1.03;;
12122;SDS011;6125;59.628;17.852;2023-03-01T01:22:36;2.37;;;0.97;;
12122;SDS011;6125;59.628;17.852;2023-03-01T01:25:03;2.00;;;0.90;;
12122;SDS011;6125;59.628;17.852;2023-03-01T01:27:30;1.33;;;1.20;;
12122;SDS011;6125;59.628;17.852;2023-03-01T01:29:57;1.40;;;0.90;;
12122;SDS011;6125;59.628;17.852;2023-03-01T01:32:26;1.97;;;0.87;;
12122;SDS011;6125;59.628;17.852;2023-03-01T01:34:53;1.10;;;1.00;;
12122;SDS011;6125;59.628;17.852;2023-03-01T01:37:20;2.07;;;1.00;;
12122;SDS011;6125;59.628;17.852;2023-03-01T01:39:47;2.40;;;0.97;;
12122;SDS011;6125;59.628;17.852;2023-03-01T01:42:15;2.23;;;1.13;;
12122;SDS011;6125;59.628;17.852;2023-03-01T01:44:44;1.50;;;1.00;;
12122;SDS011;6125;59.628;17.852;2023-03-01T01:47:14;1.47;;;1.23;;
12122;SDS011;6125;59.628;17.852;2023-03-01T01:49:49;3.17;;;1.10;;
12122;SDS011;6125;59.628;17.852;2023-03-01T01:52:20;1.63;;;0.90;;
12122;SDS011;6125;59.628;17.852;2023-03-01T01:54:51;0.97;;;0.87;;
12122;SDS011;6125;59.628;17.852;2023-03-01T01:57:23;1.83;;;0.80;;
12122;SDS011;6125;59.628;17.852;2023-03-01T01:59:53;2.70;;;1.20;;
12122;SDS011;6125;59.628;17.852;2023-03-01T02:02:24;3.90;;;1.00;;
12122;SDS011;6125;59.628;17.852;2023-03-01T02:04:55;2.03;;;1.17;;
12122;SDS011;6125;59.628;17.852;2023-03-01T02:07:29;3.87;;;1.13;;
12122;SDS011;6125;59.628;17.852;2023-03-01T02:09:57;2.87;;;1.10;;
12122;SDS011;6125;59.628;17.852;2023-03-01T02:12:25;3.43;;;1.10;;
12122;SDS011;6125;59.628;17.852;2023-03-01T02:14:52;2.27;;;1.10;;
12122;SDS011;6125;59.628;17.852;2023-03-01T02:17:19;3.47;;;1.30;;
12122;SDS011;6125;59.628;17.852;2023-03-01T02:19:51;1.00;;;0.83;;
12122;SDS011;6125;59.628;17.852;2023-03-01T02:22:34;1.80;;;1.03;;
12122;SDS011;6125;59.628;17.852;2023-03-01T02:25:05;2.30;;;1.00;;
12122;SDS011;6125;59.628;17.852;2023-03-01T02:27:46;1.10;;;1.00;;
12122;SDS011;6125;59.628;17.852;2023-03-01T02:30:19;1.93;;;1.07;;
12122;SDS011;6125;59.628;17.852;2023-03-01T02:32:48;3.00;;;0.90;;
12122;SDS011;6125;59.628;17.852;2023-03-01T02:35:16;2.37;;;0.80;;
12122;SDS011;6125;59.628;17.852;2023-03-01T02:37:45;4.73;;;1.20;;
12122;SDS011;6125;59.628;17.852;2023-03-01T02:40:15;1.63;;;0.97;;
12122;SDS011;6125;59.628;17.852;2023-03-01T02:42:48;5.07;;;1.03;;
12122;SDS011;6125;59.628;17.852;2023-03-01T02:45:18;1.60;;;1.10;;
12122;SDS011;6125;59.628;17.852;2023-03-01T02:47:46;1.27;;;0.80;;
12122;SDS011;6125;59.628;17.852;2023-03-01T02:50:15;3.87;;;0.80;;
12122;SDS011;6125;59.628;17.852;2023-03-01T02:52:53;2.93;;;0.87;;
12122;SDS011;6125;59.628;17.852;2023-03-01T02:55:24;3.03;;;1.10;;
12122;SDS011;6125;59.628;17.852;2023-03-01T02:57:51;2.47;;;1.00;;
12122;SDS011;6125;59.628;17.852;2023-03-01T03:00:20;2.60;;;0.90;;
12122;SDS011;6125;59.628;17.852;2023-03-01T03:02:51;2.20;;;1.07;;
12122;SDS011;6125;59.628;17.852;2023-03-01T03:05:22;1.70;;;1.20;;
12122;SDS011;6125;59.628;17.852;2023-03-01T03:07:51;2.77;;;0.90;;
12122;SDS011;6125;59.628;17.852;2023-03-01T03:10:19;3.70;;;1.07;;
12122;SDS011;6125;59.628;17.852;2023-03-01T03:12:49;5.37;;;0.70;;
12122;SDS011;6125;59.628;17.852;2023-03-01T03:15:17;0.93;;;0.80;;
12122;SDS011;6125;59.628;17.852;2023-03-01T03:17:47;1.50;;;0.80;;
12122;SDS011;6125;59.628;17.852;2023-03-01T03:20:15;0.80;;;0.80;;
12122;SDS011;6125;59.628;17.852;2023-03-01T03:22:45;1.17;;;0.83;;
12122;SDS011;6125;59.628;17.852;2023-03-01T03:25:13;1.30;;;1.20;;
12122;SDS011;6125;59.628;17.852;2023-03-01T03:27:40;1.23;;;0.93;;
12122;SDS011;6125;59.628;17.852;2023-03-01T03:30:10;2.23;;;0.90;;
12122;SDS011;6125;59.628;17.852;2023-03-01T03:32:39;0.93;;;0.73;;
12122;SDS011;6125;59.628;17.852;2023-03-01T03:35:09;4.87;;;0.90;;
12122;SDS011;6125;59.628;17.852;2023-03-01T03:37:36;0.60;;;0.60;;
12122;SDS011;6125;59.628;17.852;2023-03-01T03:40:21;1.50;;;1.13;;
12122;SDS011;6125;59.628;17.852;2023-03-01T03:42:48;2.53;;;1.07;;
12122;SDS011;6125;59.628;17.852;2023-03-01T03:45:15;0.77;;;0.63;;
12122;SDS011;6125;59.628;17.852;2023-03-01T03:47:43;0.70;;;0.63;;
12122;SDS011;6125;59.628;17.852;2023-03-01T03:50:12;1.80;;;0.90;;
12122;SDS011;6125;59.628;17.852;2023-03-01T03:52:41;0.80;;;0.40;;
12122;SDS011;6125;59.628;17.852;2023-03-01T03:55:09;1.37;;;0.80;;
12122;SDS011;6125;59.628;17.852;2023-03-01T03:57:37;1.10;;;0.57;;
12122;SDS011;6125;59.628;17.852;2023-03-01T04:00:06;2.47;;;0.70;;
12122;SDS011;6125;59.628;17.852;2023-03-01T04:02:38;4.63;;;1.00;;
12122;SDS011;6125;59.628;17.852;2023-03-01T04:05:05;3.90;;;0.80;;
12122;SDS011;6125;59.628;17.852;2023-03-01T04:07:35;0.90;;;0.60;;
12122;SDS011;6125;59.628;17.852;2023-03-01T04:10:03;3.30;;;0.63;;
12122;SDS011;6125;59.628;17.852;2023-03-01T04:12:31;1.03;;;0.60;;
12122;SDS011;6125;59.628;17.852;2023-03-01T04:14:59;2.47;;;0.80;;
12122;SDS011;6125;59.628;17.852;2023-03-01T04:17:26;1.23;;;0.90;;
12122;SDS011;6125;59.628;17.852;2023-03-01T04:19:53;2.53;;;0.90;;
12122;SDS011;6125;59.628;17.852;2023-03-01T04:22:20;0.83;;;0.60;;
12122;SDS011;6125;59.628;17.852;2023-03-01T04:24:49;1.80;;;0.90;;
12122;SDS011;6125;59.628;17.852;2023-03-01T04:27:16;1.17;;;0.60;;
12122;SDS011;6125;59.628;17.852;2023-03-01T04:29:43;2.43;;;0.50;;
12122;SDS011;6125;59.628;17.852;2023-03-01T04:32:10;2.33;;;0.87;;
12122;SDS011;6125;59.628;17.852;2023-03-01T04:34:38;2.00;;;0.53;;
12122;SDS011;6125;59.628;17.852;2023-03-01T04:37:05;1.27;;;0.80;;
12122;SDS011;6125;59.628;17.852;2023-03-01T04:39:34;0.40;;;0.40;;
12122;SDS011;6125;59.628;17.852;2023-03-01T04:42:11;1.50;;;0.80;;
12122;SDS011;6125;59.628;17.852;2023-03-01T04:44:38;1.47;;;0.60;;
12122;SDS011;6125;59.628;17.852;2023-03-01T04:47:06;1.17;;;0.67;;
12122;SDS011;6125;59.628;17.852;2023-03-01T04:49:33;2.27;;;0.70;;
12122;SDS011;6125;59.628;17.852;2023-03-01T04:52:00;1.13;;;0.67;;
12122;SDS011;6125;59.628;17.852;2023-03-01T04:54:28;1.90;;;0.50;;
12122;SDS011;6125;59.628;17.852;2023-03-01T04:56:55;0.53;;;0.53;;
12122;SDS011;6125;59.628;17.852;2023-03-01T04:59:23;1.73;;;0.70;;
12122;SDS011;6125;59.628;17.852;2023-03-01T05:01:51;2.47;;;0.70;;
12122;SDS011;6125;59.628;17.852;2023-03-01T05:04:20;2.73;;;0.63;;
12122;SDS011;6125;59.628;17.852;2023-03-01T05:06:47;2.20;;;1.00;;
12122;SDS011;6125;59.628;17.852;2023-03-01T05:09:14;0.47;;;0.47;;
12122;SDS011;6125;59.628;17.852;2023-03-01T05:11:41;1.30;;;0.40;;
12122;SDS011;6125;59.628;17.852;2023-03-01T05:14:09;0.63;;;0.47;;
12122;SDS011;6125;59.628;17.852;2023-03-01T05:16:37;0.50;;;0.50;;
12122;SDS011;6125;59.628;17.852;2023-03-01T05:19:04;0.37;;;0.37;;
12122;SDS011;6125;59.628;17.852;2023-03-01T05:21:36;0.60;;;0.60;;
12122;SDS011;6125;59.628;17.852;2023-03-01T05:24:23;0.50;;;0.50;;
12122;SDS011;6125;59.628;17.852;2023-03-01T05:26:51;1.03;;;0.73;;
12122;SDS011;6125;59.628;17.852;2023-03-01T05:29:18;0.77;;;0.50;;
12122;SDS011;6125;59.628;17.852;2023-03-01T05:31:51;0.57;;;0.57;;
12122;SDS011;6125;59.628;17.852;2023-03-01T05:34:19;2.50;;;0.83;;
12122;SDS011;6125;59.628;17.852;2023-03-01T05:36:50;0.60;;;0.50;;
12122;SDS011;6125;59.628;17.852;2023-03-01T05:39:18;0.70;;;0.43;;
12122;SDS011;6125;59.628;17.852;2023-03-01T05:41:47;0.53;;;0.50;;
12122;SDS011;6125;59.628;17.852;2023-03-01T05:44:15;1.87;;;0.63;;
12122;SDS011;6125;59.628;17.852;2023-03-01T05:46:42;0.40;;;0.40;;
12122;SDS011;6125;59.628;17.852;2023-03-01T05:49:11;2.37;;;0.70;;
12122;SDS011;6125;59.628;17.852;2023-03-01T05:51:38;0.60;;;0.60;;
12122;SDS011;6125;59.628;17.852;2023-03-01T05:54:06;0.90;;;0.50;;
12122;SDS011;6125;59.628;17.852;2023-03-01T05:56:33;1.10;;;0.60;;
12122;SDS011;6125;59.628;17.852;2023-03-01T05:59:01;0.60;;;0.57;;
12122;SDS011;6125;59.628;17.852;2023-03-01T06:01:28;0.97;;;0.53;;
12122;SDS011;6125;59.628;17.852;2023-03-01T06:03:55;0.97;;;0.90;;
12122;SDS011;6125;59.628;17.852;2023-03-01T06:06:24;0.63;;;0.63;;
12122;SDS011;6125;59.628;17.852;2023-03-01T06:08:51;0.53;;;0.43;;
12122;SDS011;6125;59.628;17.852;2023-03-01T06:11:19;0.70;;;0.70;;
12122;SDS011;6125;59.628;17.852;2023-03-01T06:13:46;1.43;;;0.70;;
12122;SDS011;6125;59.628;17.852;2023-03-01T06:16:13;3.27;;;0.70;;
12122;SDS011;6125;59.628;17.852;2023-03-01T06:18:41;2.17;;;0.70;;
12122;SDS011;6125;59.628;17.852;2023-03-01T06:21:08;1.03;;;0.60;;
12122;SDS011;6125;59.628;17.852;2023-03-01T06:23:36;1.00;;;0.70;;
12122;SDS011;6125;59.628;17.852;2023-03-01T06:26:07;1.60;;;0.73;;
12122;SDS011;6125;59.628;17.852;2023-03-01T06:28:34;3.53;;;1.00;;
12122;SDS011;6125;59.628;17.852;2023-03-01T06:31:03;1.50;;;0.90;;
12122;SDS011;6125;59.628;17.852;2023-03-01T06:33:33;2.03;;;0.90;;
12122;SDS011;6125;59.628;17.852;2023-03-01T06:36:01;1.43;;;0.77;;
12122;SDS011;6125;59.628;17.852;2023-03-01T06:38:28;2.63;;;0.80;;
12122;SDS011;6125;59.628;17.852;2023-03-01T06:40:56;1.40;;;0.70;;
12122;SDS011;6125;59.628;17.852;2023-03-01T06:43:24;0.53;;;0.40;;
12122;SDS011;6125;59.628;17.852;2023-03-01T06:45:51;4.23;;;0.70;;
12122;SDS011;6125;59.628;17.852;2023-03-01T06:48:18;1.53;;;0.87;;
12122;SDS011;6125;59.628;17.852;2023-03-01T06:50:45;2.37;;;0.63;;
12122;SDS011;6125;59.628;17.852;2023-03-01T06:53:12;0.93;;;0.50;;
12122;SDS011;6125;59.628;17.852;2023-03-01T06:55:39;1.90;;;0.60;;
12122;SDS011;6125;59.628;17.852;2023-03-01T06:58:08;0.70;;;0.67;;
12122;SDS011;6125;59.628;17.852;2023-03-01T07:00:36;1.47;;;0.60;;
12122;SDS011;6125;59.628;17.852;2023-03-01T07:03:05;2.10;;;0.60;;
12122;SDS011;6125;59.628;17.852;2023-03-01T07:05:32;2.43;;;0.53;;
12122;SDS011;6125;59.628;17.852;2023-03-01T07:07:59;2.10;;;0.70;;
12122;SDS011;6125;59.628;17.852;2023-03-01T07:10:26;2.20;;;0.73;;
12122;SDS011;6125;59.628;17.852;2023-03-01T07:12:54;1.03;;;0.60;;
12122;SDS011;6125;59.628;17.852;2023-03-01T07:15:23;1.87;;;0.70;;
12122;SDS011;6125;59.628;17.852;2023-03-01T07:17:58;0.70;;;0.70;;
12122;SDS011;6125;59.628;17.852;2023-03-01T07:20:25;0.57;;;0.57;;
12122;SDS011;6125;59.628;17.852;2023-03-01T07:22:53;1.27;;;0.70;;
12122;SDS011;6125;59.628;17.852;2023-03-01T07:25:21;0.43;;;0.43;;
12122;SDS011;6125;59.628;17.852;2023-03-01T07:27:49;0.87;;;0.77;;
12122;SDS011;6125;59.628;17.852;2023-03-01T07:30:17;0.50;;;0.50;;
12122;SDS011;6125;59.628;17.852;2023-03-01T07:32:46;0.93;;;0.83;;
12122;SDS011;6125;59.628;17.852;2023-03-01T07:35:13;2.60;;;0.90;;
12122;SDS011;6125;59.628;17.852;2023-03-01T07:37:41;3.10;;;0.60;;
12122;SDS011;6125;59.628;17.852;2023-03-01T07:40:08;1.20;;;0.50;;
12122;SDS011;6125;59.628;17.852;2023-03-01T07:42:36;0.50;;;0.50;;
12122;SDS011;6125;59.628;17.852;2023-03-01T07:45:03;2.63;;;0.70;;
12122;SDS011;6125;59.628;17.852;2023-03-01T07:47:31;1.13;;;0.60;;
12122;SDS011;6125;59.628;17.852;2023-03-01T07:49:59;1.53;;;0.80;;
12122;SDS011;6125;59.628;17.852;2023-03-01T07:52:27;1.80;;;0.50;;
12122;SDS011;6125;59.628;17.852;2023-03-01T07:54:56;1.87;;;0.80;;
12122;SDS011;6125;59.628;17.852;2023-03-01T07:57:23;1.83;;;0.83;;
12122;SDS011;6125;59.628;17.852;2023-03-01T07:59:50;0.50;;;0.50;;
12122;SDS011;6125;59.628;17.852;2023-03-01T08:02:17;1.07;;;0.70;;
12122;SDS011;6125;59.628;17.852;2023-03-01T08:04:44;0.87;;;0.70;;
12122;SDS011;6125;59.628;17.852;2023-03-01T08:07:13;1.83;;;0.70;;
12122;SDS011;6125;59.628;17.852;2023-03-01T08:09:40;3.60;;;0.80;;
12122;SDS011;6125;59.628;17.852;2023-03-01T08:12:07;1.13;;;0.60;;
12122;SDS011;6125;59.628;17.852;2023-03-01T08:14:34;1.00;;;0.50;;
12122;SDS011;6125;59.628;17.852;2023-03-01T08:17:01;1.07;;;0.70;;
12122;SDS011;6125;59.628;17.852;2023-03-01T08:19:29;1.83;;;0.73;;
12122;SDS011;6125;59.628;17.852;2023-03-01T08:21:57;0.77;;;0.63;;
12122;SDS011;6125;59.628;17.852;2023-03-01T08:24:26;0.83;;;0.50;;
12122;SDS011;6125;59.628;17.852;2023-03-01T08:26:53;1.50;;;0.90;;
12122;SDS011;6125;59.628;17.852;2023-03-01T08:29:20;1.37;;;0.60;;
12122;SDS011;6125;59.628;17.852;2023-03-01T08:31:50;0.60;;;0.60;;
12122;SDS011;6125;59.628;17.852;2023-03-01T08:34:17;0.60;;;0.60;;
12122;SDS011;6125;59.628;17.852;2023-03-01T08:36:45;2.57;;;0.60;;
12122;SDS011;6125;59.628;17.852;2023-03-01T08:39:13;1.87;;;1.00;;
12122;SDS011;6125;59.628;17.852;2023-03-01T08:41:43;4.20;;;0.70;;
12122;SDS011;6125;59.628;17.852;2023-03-01T08:44:12;0.87;;;0.60;;
12122;SDS011;6125;59.628;17.852;2023-03-01T08:46:41;1.70;;;0.63;;
12122;SDS011;6125;59.628;17.852;2023-03-01T08:49:11;0.60;;;0.60;;
12122;SDS011;6125;59.628;17.852;2023-03-01T08:51:39;1.20;;;0.60;;
12122;SDS011;6125;59.628;17.852;2023-03-01T08:54:07;1.53;;;0.90;;
12122;SDS011;6125;59.628;17.852;2023-03-01T08:56:37;0.60;;;0.60;;
12122;SDS011;6125;59.628;17.852;2023-03-01T08:59:05;0.43;;;0.43;;
12122;SDS011;6125;59.628;17.852;2023-03-01T09:01:39;1.30;;;0.70;;
12122;SDS011;6125;59.628;17.852;2023-03-01T09:04:08;0.87;;;0.50;;
12122;SDS011;6125;59.628;17.852;2023-03-01T09:06:35;0.90;;;0.77;;
12122;SDS011;6125;59.628;17.852;2023-03-01T09:09:02;0.77;;;0.63;;
12122;SDS011;6125;59.628;17.852;2023-03-01T09:11:32;1.17;;;0.80;;
12122;SDS011;6125;59.628;17.852;2023-03-01T09:14:00;0.93;;;0.60;;
12122;SDS011;6125;59.628;17.852;2023-03-01T09:16:28;2.23;;;0.70;;
12122;SDS011;6125;59.628;17.852;2023-03-01T09:19:01;1.00;;;0.90;;
12122;SDS011;6125;59.628;17.852;2023-03-01T09:21:28;2.57;;;1.30;;
12122;SDS011;6125;59.628;17.852;2023-03-01T09:23:56;1.53;;;0.93;;
12122;SDS011;6125;59.628;17.852;2023-03-01T09:26:24;2.33;;;0.80;;
12122;SDS011;6125;59.628;17.852;2023-03-01T09:28:52;1.03;;;1.00;;
12122;SDS011;6125;59.628;17.852;2023-03-01T09:31:20;1.67;;;1.00;;
12122;SDS011;6125;59.628;17.852;2023-03-01T09:33:51;1.00;;;0.83;;
12122;SDS011;6125;59.628;17.852;2023-03-01T09:36:20;1.20;;;0.90;;
12122;SDS011;6125;59.628;17.852;2023-03-01T09:38:50;1.10;;;0.80;;
12122;SDS011;6125;59.628;17.852;2023-03-01T09:41:26;0.87;;;0.80;;
12122;SDS011;6125;59.628;17.852;2023-03-01T09:44:03;0.83;;;0.83;;
12122;SDS011;6125;59.628;17.852;2023-03-01T09:46:37;1.07;;;0.80;;
12122;SDS011;6125;59.628;17.852;2023-03-01T09:49:09;1.30;;;0.90;;
12122;SDS011;6125;59.628;17.852;2023-03-01T09:51:39;1.37;;;0.90;;
12122;SDS011;6125;59.628;17.852;2023-03-01T09:54:08;0.77;;;0.73;;
12122;SDS011;6125;59.628;17.852;2023-03-01T09:56:37;1.67;;;1.00;;
12122;SDS011;6125;59.628;17.852;2023-03-01T09:59:11;2.07;;;0.90;;
12122;SDS011;6125;59.628;17.852;2023-03-01T10:01:46;2.90;;;1.10;;
12122;SDS011;6125;59.628;17.852;2023-03-01T10:04:28;0.70;;;0.70;;
12122;SDS011;6125;59.628;17.852;2023-03-01T10:07:13;1.47;;;0.77;;
12122;SDS011;6125;59.628;17.852;2023-03-01T10:09:47;0.80;;;0.80;;
12122;SDS011;6125;59.628;17.852;2023-03-01T10:12:15;0.93;;;0.70;;
12122;SDS011;6125;59.628;17.852;2023-03-01T10:14:48;0.97;;;0.80;;
12122;SDS011;6125;59.628;17.852;2023-03-01T10:17:27;0.87;;;0.70;;
12122;SDS011;6125;59.628;17.852;2023-03-01T10:20:10;0.97;;;0.80;;
12122;SDS011;6125;59.628;17.852;2023-03-01T10:22:45;1.53;;;1.10;;
12122;SDS011;6125;59.628;17.852;2023-03-01T10:25:16;0.90;;;0.90;;
12122;SDS011;6125;59.628;17.852;2023-03-01T10:27:51;1.63;;;1.20;;
12122;SDS011;6125;59.628;17.852;2023-03-01T10:30:20;1.40;;;1.17;;
12122;SDS011;6125;59.628;17.852;2023-03-01T10:32:50;0.80;;;0.80;;
12122;SDS011;6125;59.628;17.852;2023-03-01T10:35:21;1.27;;;1.10;;
12122;SDS011;6125;59.628;17.852;2023-03-01T10:37:56;1.10;;;0.80;;
12122;SDS011;6125;59.628;17.852;2023-03-01T10:40:24;1.23;;;1.00;;
12122;SDS011;6125;59.628;17.852;2023-03-01T10:42:53;1.03;;;0.90;;
12122;SDS011;6125;59.628;17.852;2023-03-01T10:45:27;0.80;;;0.80;;
12122;SDS011;6125;59.628;17.852;2023-03-01T10:48:05;1.67;;;0.80;;
12122;SDS011;6125;59.628;17.852;2023-03-01T10:50:40;0.80;;;0.80;;
12122;SDS011;6125;59.628;17.852;2023-03-01T10:53:18;1.23;;;0.90;;
12122;SDS011;6125;59.628;17.852;2023-03-01T10:55:58;0.60;;;0.60;;
12122;SDS011;6125;59.628;17.852;2023-03-01T10:58:27;2.57;;;0.60;;
12122;SDS011;6125;59.628;17.852;2023-03-01T11:00:59;1.50;;;0.60;;
12122;SDS011;6125;59.628;17.852;2023-03-01T11:03:28;1.47;;;0.73;;
12122;SDS011;6125;59.628;17.852;2023-03-01T11:06:05;2.30;;;0.70;;
12122;SDS011;6125;59.628;17.852;2023-03-01T11:08:47;2.77;;;0.77;;
12122;SDS011;6125;59.628;17.852;2023-03-01T11:11:20;0.63;;;0.63;;
12122;SDS011;6125;59.628;17.852;2023-03-01T11:13:57;2.20;;;0.77;;
12122;SDS011;6125;59.628;17.852;2023-03-01T11:16:29;0.60;;;0.60;;
12122;SDS011;6125;59.628;17.852;2023-03-01T11:19:00;0.57;;;0.57;;
12122;SDS011;6125;59.628;17.852;2023-03-01T11:21:46;2.00;;;0.67;;
12122;SDS011;6125;59.628;17.852;2023-03-01T11:24:18;0.77;;;0.60;;
12122;SDS011;6125;59.628;17.852;2023-03-01T11:26:50;0.50;;;0.50;;
12122;SDS011;6125;59.628;17.852;2023-03-01T11:29:24;1.03;;;0.63;;
12122;SDS011;6125;59.628;17.852;2023-03-01T11:31:54;0.70;;;0.70;;
12122;SDS011;6125;59.628;17.852;2023-03-01T11:34:28;0.77;;;0.50;;
12122;SDS011;6125;59.628;17.852;2023-03-01T11:37:07;0.60;;;0.60;;
12122;SDS011;6125;59.628;17.852;2023-03-01T11:39:43;0.83;;;0.50;;
12122;SDS011;6125;59.628;17.852;2023-03-01T11:42:17;0.63;;;0.60;;
12122;SDS011;6125;59.628;17.852;2023-03-01T11:44:47;1.10;;;0.77;;
12122;SDS011;6125;59.628;17.852;2023-03-01T11:47:27;0.87;;;0.43;;
12122;SDS011;6125;59.628;17.852;2023-03-01T11:50:07;0.73;;;0.57;;
12122;SDS011;6125;59.628;17.852;2023-03-01T11:52:45;0.87;;;0.60;;
12122;SDS011;6125;59.628;17.852;2023-03-01T11:55:36;0.70;;;0.70;;
12122;SDS011;6125;59.628;17.852;2023-03-01T11:58:35;0.93;;;0.60;;
12122;SDS011;6125;59.628;17.852;2023-03-01T12:01:24;0.50;;;0.50;;
12122;SDS011;6125;59.628;17.852;2023-03-01T12:07:12;0.93;;;0.40;;
12122;SDS011;6125;59.628;17.852;2023-03-01T12:09:51;1.13;;;0.60;;
12122;SDS011;6125;59.628;17.852;2023-03-01T12:12:36;0.93;;;0.60;;
12122;SDS011;6125;59.628;17.852;2023-03-01T12:15:20;1.73;;;0.37;;
12122;SDS011;6125;59.628;17.852;2023-03-01T12:18:09;0.40;;;0.40;;
12122;SDS011;6125;59.628;17.852;2023-03-01T12:20:54;0.50;;;0.50;;
12122;SDS011;6125;59.628;17.852;2023-03-01T12:23:34;0.67;;;0.53;;
12122;SDS011;6125;59.628;17.852;2023-03-01T12:26:26;0.70;;;0.30;;
12122;SDS011;6125;59.628;17.852;2023-03-01T12:29:16;0.40;;;0.40;;
12122;SDS011;6125;59.628;17.852;2023-03-01T12:31:56;0.60;;;0.60;;
12122;SDS011;6125;59.628;17.852;2023-03-01T12:34:48;0.67;;;0.47;;
12122;SDS011;6125;59.628;17.852;2023-03-01T12:37:42;0.47;;;0.47;;
12122;SDS011;6125;59.628;17.852;2023-03-01T12:40:27;0.80;;;0.70;;
12122;SDS011;6125;59.628;17.852;2023-03-01T12:43:17;0.60;;;0.60;;
12122;SDS011;6125;59.628;17.852;2023-03-01T12:48:56;0.80;;;0.60;;
12122;SDS011;6125;59.628;17.852;2023-03-01T12:51:34;0.70;;;0.50;;
12122;SDS011;6125;59.628;17.852;2023-03-01T12:54:05;0.50;;;0.50;;
12122;SDS011;6125;59.628;17.852;2023-03-01T12:56:40;0.83;;;0.80;;
12122;SDS011;6125;59.628;17.852;2023-03-01T12:59:13;0.43;;;0.40;;
12122;SDS011;6125;59.628;17.852;2023-03-01T13:01:45;1.27;;;0.60;;
12122;SDS011;6125;59.628;17.852;2023-03-01T13:04:23;0.50;;;0.50;;
12122;SDS011;6125;59.628;17.852;2023-03-01T13:07:08;1.03;;;0.40;;
12122;SDS011;6125;59.628;17.852;2023-03-01T13:09:43;0.33;;;0.33;;
12122;SDS011;6125;59.628;17.852;2023-03-01T13:15:26;2.43;;;0.60;;
12122;SDS011;6125;59.628;17.852;2023-03-01T13:17:55;0.60;;;0.60;;
12122;SDS011;6125;59.628;17.852;2023-03-01T13:20:24;1.30;;;0.60;;
12122;SDS011;6125;59.628;17.852;2023-03-01T13:23:04;0.40;;;0.40;;
12122;SDS011;6125;59.628;17.852;2023-03-01T13:25:35;0.43;;;0.43;;
12122;SDS011;6125;59.628;17.852;2023-03-01T13:28:40;0.40;;;0.40;;
12122;SDS011;6125;59.628;17.852;2023-03-01T13:37:28;1.07;;;0.80;;
12122;SDS011;6125;59.628;17.852;2023-03-01T13:39:57;0.73;;;0.73;;
12122;SDS011;6125;59.628;17.852;2023-03-01T13:42:31;1.60;;;0.43;;
12122;SDS011;6125;59.628;17.852;2023-03-01T13:45:14;0.63;;;0.60;;
12122;SDS011;6125;59.628;17.852;2023-03-01T13:47:49;1.10;;;0.70;;
12122;SDS011;6125;59.628;17.852;2023-03-01T13:50:24;1.90;;;0.60;;
12122;SDS011;6125;59.628;17.852;2023-03-01T13:52:54;0.40;;;0.40;;
12122;SDS011;6125;59.628;17.852;2023-03-01T13:55:26;0.93;;;0.50;;
12122;SDS011;6125;59.628;17.852;2023-03-01T13:57:59;1.13;;;0.60;;
12122;SDS011;6125;59.628;17.852;2023-03-01T14:00:29;1.03;;;0.60;;
12122;SDS011;6125;59.628;17.852;2023-03-01T14:03:03;1.47;;;0.50;;
12122;SDS011;6125;59.628;17.852;2023-03-01T14:05:39;0.60;;;0.60;;
12122;SDS011;6125;59.628;17.852;2023-03-01T14:10:57;3.33;;;0.57;;
12122;SDS011;6125;59.628;17.852;2023-03-01T14:13:43;0.90;;;0.53;;
12122;SDS011;6125;59.628;17.852;2023-03-01T14:16:21;1.73;;;0.60;;
12122;SDS011;6125;59.628;17.852;2023-03-01T14:19:02;0.40;;;0.40;;
12122;SDS011;6125;59.628;17.852;2023-03-01T14:21:42;1.60;;;0.50;;
12122;SDS011;6125;59.628;17.852;2023-03-01T14:24:15;2.13;;;0.80;;
12122;SDS011;6125;59.628;17.852;2023-03-01T14:26:45;3.97;;;1.37;;
12122;SDS011;6125;59.628;17.852;2023-03-01T14:29:25;1.00;;;0.93;;
12122;SDS011;6125;59.628;17.852;2023-03-01T14:31:53;0.50;;;0.50;;
12122;SDS011;6125;59.628;17.852;2023-03-01T14:34:23;1.00;;;0.70;;
12122;SDS011;6125;59.628;17.852;2023-03-01T14:36:50;1.07;;;0.80;;
12122;SDS011;6125;59.628;17.852;2023-03-01T14:39:18;0.70;;;0.70;;
12122;SDS011;6125;59.628;17.852;2023-03-01T14:41:50;0.60;;;0.60;;
12122;SDS011;6125;59.628;17.852;2023-03-01T14:44:19;1.40;;;0.83;;
12122;SDS011;6125;59.628;17.852;2023-03-01T14:46:51;0.87;;;0.67;;
12122;SDS011;6125;59.628;17.852;2023-03-01T14:49:23;0.83;;;0.63;;
12122;SDS011;6125;59.628;17.852;2023-03-01T14:51:53;0.63;;;0.63;;
12122;SDS011;6125;59.628;17.852;2023-03-01T14:54:24;2.00;;;0.70;;
12122;SDS011;6125;59.628;17.852;2023-03-01T14:56:54;3.03;;;0.40;;
12122;SDS011;6125;59.628;17.852;2023-03-01T14:59:25;0.40;;;0.40;;
12122;SDS011;6125;59.628;17.852;2023-03-01T15:01:53;0.50;;;0.50;;
12122;SDS011;6125;59.628;17.852;2023-03-01T15:04:24;1.67;;;0.67;;
12122;SDS011;6125;59.628;17.852;2023-03-01T15:06:52;1.60;;;0.60;;
12122;SDS011;6125;59.628;17.852;2023-03-01T15:09:21;0.80;;;0.80;;
12122;SDS011;6125;59.628;17.852;2023-03-01T15:11:48;1.07;;;0.60;;
12122;SDS011;6125;59.628;17.852;2023-03-01T15:14:26;0.60;;;0.50;;
12122;SDS011;6125;59.628;17.852;2023-03-01T15:17:15;0.50;;;0.50;;
12122;SDS011;6125;59.628;17.852;2023-03-01T15:19:50;0.90;;;0.67;;
12122;SDS011;6125;59.628;17.852;2023-03-01T15:22:17;0.53;;;0.53;;
12122;SDS011;6125;59.628;17.852;2023-03-01T15:24:52;0.40;;;0.40;;
12122;SDS011;6125;59.628;17.852;2023-03-01T15:27:20;1.37;;;0.70;;
12122;SDS011;6125;59.628;17.852;2023-03-01T15:29:49;0.60;;;0.60;;